Time,TemperatureF,DewpointF,PressureIn,WindDirection,WindDirectionDegrees,WindSpeedMPH,WindSpeedGustMPH,Humidity,HourlyPrecipIn,Conditions,Clouds,dailyrainin,SoftwareType,DateUTC
2013-07-24 00:03:00,57.8,56.7,29.95,SW,224,0.0,0.0,96,0.00,,---,0.00,VWS V14.01,2013-07-24 07:03:00,
2013-07-24 00:08:00,57.8,56.7,29.95,SW,224,0.0,0.0,96,0.00,,---,0.00,VWS V14.01,2013-07-24 07:08:00,
2013-07-24 00:13:00,58.0,56.9,29.95,SW,224,0.0,0.0,96,0.00,,---,0.00,VWS V14.01,2013-07-24 07:13:00,
2013-07-24 00:18:00,58.0,56.6,29.95,SW,224,0.0,0.0,95,0.00,,---,0.00,VWS V14.01,2013-07-24 07:18:00,
2013-07-24 00:23:00,58.0,56.6,29.95,SW,224,0.0,1.0,95,0.00,,---,0.00,VWS V14.01,2013-07-24 07:23:00,
2013-07-24 00:28:00,57.8,56.4,29.95,SW,224,0.0,1.0,95,0.00,,---,0.00,VWS V14.01,2013-07-24 07:28:00,
2013-07-24 00:48:00,57.6,57.0,29.94,SW,224,0.0,-999.0,96,-99.99,,,0.00,weatherlink.com 1.10,2013-07-24 07:48:00,
2013-07-24 01:04:00,57.5,56.0,29.94,SW,224,0.0,-999.0,96,-99.99,,,0.00,weatherlink.com 1.10,2013-07-24 08:04:00,
2013-07-24 01:37:00,57.0,56.0,29.94,SW,224,0.0,-999.0,96,-99.99,,,0.00,weatherlink.com 1.10,2013-07-24 08:37:00,
2013-07-24 01:54:00,57.0,56.0,29.94,SW,224,0.0,-999.0,96,-99.99,,,0.00,weatherlink.com 1.10,2013-07-24 08:54:00,
2013-07-24 02:10:00,57.0,56.0,29.94,SW,224,0.0,-999.0,97,-99.99,,,0.00,weatherlink.com 1.10,2013-07-24 09:10:00,
2013-07-24 02:27:00,57.0,56.0,29.94,SW,224,0.0,-999.0,97,-99.99,,,0.00,weatherlink.com 1.10,2013-07-24 09:27:00,
2013-07-24 02:43:00,56.9,56.0,29.94,SW,223,0.0,-999.0,97,-99.99,,,0.00,weatherlink.com 1.10,2013-07-24 09:43:00,
2013-07-24 02:59:00,56.7,56.0,29.94,SW,224,0.0,-999.0,97,-99.99,,,0.00,weatherlink.com 1.10,2013-07-24 09:59:00,
2013-07-24 03:16:00,56.7,56.0,29.94,SW,224,0.0,-999.0,97,-99.99,,,0.00,weatherlink.com 1.10,2013-07-24 10:16:00,
2013-07-24 03:32:00,56.7,56.0,29.93,SW,224,0.0,-999.0,97,-99.99,,,0.00,weatherlink.com 1.10,2013-07-24 10:32:00,
2013-07-24 03:49:00,56.7,56.0,29.93,SW,223,0.0,-999.0,98,-99.99,,,0.00,weatherlink.com 1.10,2013-07-24 10:49:00,
2013-07-24 04:05:00,56.6,56.0,29.93,SW,224,0.0,-999.0,98,-99.99,,,0.00,weatherlink.com 1.10,2013-07-24 11:05:00,
2013-07-24 04:21:00,56.6,56.0,29.93,SW,224,0.0,-999.0,98,-99.99,,,0.00,weatherlink.com 1.10,2013-07-24 11:21:00,
2013-07-24 04:38:00,56.3,56.0,29.94,SW,224,0.0,-999.0,98,-99.99,,,0.00,weatherlink.com 1.10,2013-07-24 11:38:00,
2013-07-24 04:54:00,55.7,55.0,29.94,SW,224,0.0,-999.0,98,-99.99,,,0.00,weatherlink.com 1.10,2013-07-24 11:54:00,
2013-07-24 05:11:00,55.4,55.0,29.94,SW,224,0.0,-999.0,98,-99.99,,,0.00,weatherlink.com 1.10,2013-07-24 12:11:00,
2013-07-24 05:27:00,55.1,55.0,29.94,SW,224,0.0,-999.0,98,-99.99,,,0.00,weatherlink.com 1.10,2013-07-24 12:27:00,
2013-07-24 05:44:00,54.8,54.0,29.94,SW,224,0.0,-999.0,98,-99.99,,,0.00,weatherlink.com 1.10,2013-07-24 12:44:00,
2013-07-24 06:00:00,54.7,54.0,29.94,SW,224,0.0,-999.0,98,-99.99,,,0.00,weatherlink.com 1.10,2013-07-24 13:00:00,
2013-07-24 06:16:00,54.7,54.0,29.94,SW,224,0.0,-999.0,97,-99.99,,,0.00,weatherlink.com 1.10,2013-07-24 13:16:00,
2013-07-24 06:32:00,54.5,54.0,29.94,SW,224,0.0,-999.0,97,-99.99,,,0.00,weatherlink.com 1.10,2013-07-24 13:32:00,
2013-07-24 06:49:00,55.0,55.0,29.94,SW,224,0.0,-999.0,98,-99.99,,,0.00,weatherlink.com 1.10,2013-07-24 13:49:00,
2013-07-24 07:05:00,55.6,55.0,29.94,SW,224,0.0,-999.0,97,-99.99,,,0.00,weatherlink.com 1.10,2013-07-24 14:05:00,
2013-07-24 07:21:00,55.9,55.0,29.95,SW,224,0.0,-999.0,97,-99.99,,,0.00,weatherlink.com 1.10,2013-07-24 14:21:00,
2013-07-24 07:38:00,56.9,56.0,29.95,SW,224,0.0,-999.0,97,-99.99,,,0.00,weatherlink.com 1.10,2013-07-24 14:38:00,
2013-07-24 07:54:00,57.5,56.0,29.95,SW,224,0.0,-999.0,95,-99.99,,,0.00,weatherlink.com 1.10,2013-07-24 14:54:00,
2013-07-24 08:11:00,59.9,57.0,29.95,SW,224,0.0,-999.0,89,-99.99,,,0.00,weatherlink.com 1.10,2013-07-24 15:11:00,
2013-07-24 08:28:00,60.9,56.0,29.95,North,355,0.0,-999.0,85,-99.99,,,0.00,weatherlink.com 1.10,2013-07-24 15:28:00,
2013-07-24 08:44:00,62.7,57.0,29.95,NW,314,0.0,-999.0,81,-99.99,,,0.00,weatherlink.com 1.10,2013-07-24 15:44:00,
2013-07-24 09:00:00,63.5,57.0,29.95,WNW,290,0.0,-999.0,80,-99.99,,,0.00,weatherlink.com 1.10,2013-07-24 16:00:00,
2013-07-24 09:17:00,65.0,57.0,29.95,WNW,292,0.0,-999.0,76,-99.99,,,0.00,weatherlink.com 1.10,2013-07-24 16:17:00,
2013-07-24 09:34:00,65.2,57.0,29.95,WNW,291,0.0,-999.0,76,-99.99,,,0.00,weatherlink.com 1.10,2013-07-24 16:34:00,
2013-07-24 09:50:00,66.1,58.0,29.95,West,276,0.0,-999.0,75,-99.99,,,0.00,weatherlink.com 1.10,2013-07-24 16:50:00,
2013-07-24 10:07:00,68.1,59.0,29.95,WNW,283,0.0,-999.0,72,-99.99,,,0.00,weatherlink.com 1.10,2013-07-24 17:07:00,
2013-07-24 10:23:00,68.6,59.0,29.95,WNW,301,0.0,-999.0,71,-99.99,,,0.00,weatherlink.com 1.10,2013-07-24 17:23:00,
2013-07-24 10:40:00,70.6,60.0,29.95,WNW,292,0.0,-999.0,68,-99.99,,,0.00,weatherlink.com 1.10,2013-07-24 17:40:00,
2013-07-24 10:56:00,71.6,60.0,29.95,West,279,0.0,-999.0,66,-99.99,,,0.00,weatherlink.com 1.10,2013-07-24 17:56:00,
2013-07-24 11:12:00,73.2,60.0,29.95,WSW,258,0.0,-999.0,63,-99.99,,,0.00,weatherlink.com 1.10,2013-07-24 18:12:00,
2013-07-24 11:29:00,74.9,60.0,29.95,WNW,301,0.0,-999.0,61,-99.99,,,0.00,weatherlink.com 1.10,2013-07-24 18:29:00,
2013-07-24 11:45:00,76.5,61.0,29.94,NW,321,0.0,-999.0,59,-99.99,,,0.00,weatherlink.com 1.10,2013-07-24 18:45:00,
2013-07-24 12:02:00,77.6,59.0,29.94,WSW,240,0.0,-999.0,53,-99.99,,,0.00,weatherlink.com 1.10,2013-07-24 19:02:00,
2013-07-24 12:18:00,77.2,59.0,29.95,WSW,242,0.0,-999.0,54,-99.99,,,0.00,weatherlink.com 1.10,2013-07-24 19:18:00,
2013-07-24 12:34:00,77.2,59.0,29.95,WSW,245,0.0,-999.0,53,-99.99,,,0.00,weatherlink.com 1.10,2013-07-24 19:34:00,
2013-07-24 12:50:00,75.3,59.0,29.95,SSW,206,4.0,-999.0,58,-99.99,,,0.00,weatherlink.com 1.10,2013-07-24 19:50:00,
2013-07-24 13:07:00,74.2,59.0,29.95,West,267,0.0,-999.0,59,-99.99,,,0.00,weatherlink.com 1.10,2013-07-24 20:07:00,
2013-07-24 13:23:00,73.0,59.0,29.95,SSW,206,6.0,-999.0,61,-99.99,,,0.00,weatherlink.com 1.10,2013-07-24 20:23:00,
2013-07-24 13:40:00,73.5,59.0,29.95,WSW,245,5.0,-999.0,60,-99.99,,,0.00,weatherlink.com 1.10,2013-07-24 20:40:00,
2013-07-24 13:56:00,73.3,58.0,29.95,SW,216,9.0,-999.0,60,-99.99,,,0.00,weatherlink.com 1.10,2013-07-24 20:56:00,
2013-07-24 14:13:00,72.3,58.0,29.94,SW,236,5.0,-999.0,62,-99.99,,,0.00,weatherlink.com 1.10,2013-07-24 21:13:00,
2013-07-24 14:29:00,71.8,59.0,29.94,WSW,240,0.0,-999.0,64,-99.99,,,0.00,weatherlink.com 1.10,2013-07-24 21:29:00,
2013-07-24 14:46:00,72.0,59.0,29.94,WNW,302,0.0,-999.0,63,-99.99,,,0.00,weatherlink.com 1.10,2013-07-24 21:46:00,
2013-07-24 15:02:00,72.7,58.0,29.93,WSW,249,0.0,-999.0,61,-99.99,,,0.00,weatherlink.com 1.10,2013-07-24 22:02:00,
2013-07-24 15:18:00,71.6,59.0,29.93,South,185,0.0,-999.0,64,-99.99,,,0.00,weatherlink.com 1.10,2013-07-24 22:18:00,
2013-07-24 15:35:00,72.0,59.0,29.92,WSW,243,0.0,-999.0,63,-99.99,,,0.00,weatherlink.com 1.10,2013-07-24 22:35:00,
2013-07-24 15:51:00,71.8,58.0,29.92,WNW,289,0.0,-999.0,63,-99.99,,,0.00,weatherlink.com 1.10,2013-07-24 22:51:00,
2013-07-24 16:08:00,70.4,58.0,29.92,WSW,251,0.0,-999.0,65,-99.99,,,0.00,weatherlink.com 1.10,2013-07-24 23:08:00,
2013-07-24 16:24:00,69.6,58.0,29.92,West,260,1.0,-999.0,67,-99.99,,,0.00,weatherlink.com 1.10,2013-07-24 23:24:00,
2013-07-24 16:40:00,69.4,58.0,29.92,West,280,4.0,-999.0,67,-99.99,,,0.00,weatherlink.com 1.10,2013-07-24 23:40:00,
2013-07-24 16:57:00,67.9,58.0,29.92,WSW,242,1.0,-999.0,71,-99.99,,,0.00,weatherlink.com 1.10,2013-07-24 23:57:00,
2013-07-24 17:13:00,67.9,58.0,29.92,SSW,197,1.0,-999.0,70,-99.99,,,0.00,weatherlink.com 1.10,2013-07-25 00:13:00,
2013-07-24 17:29:00,67.6,57.0,29.92,West,278,6.0,-999.0,70,-99.99,,,0.00,weatherlink.com 1.10,2013-07-25 00:29:00,
2013-07-24 17:46:00,66.8,57.0,29.91,West,275,0.0,-999.0,71,-99.99,,,0.00,weatherlink.com 1.10,2013-07-25 00:46:00,
2013-07-24 18:02:00,65.5,57.0,29.91,WSW,251,0.0,-999.0,75,-99.99,,,0.00,weatherlink.com 1.10,2013-07-25 01:02:00,
2013-07-24 18:19:00,64.2,57.0,29.91,West,268,0.0,-999.0,78,-99.99,,,0.00,weatherlink.com 1.10,2013-07-25 01:19:00,
2013-07-24 18:35:00,62.1,56.0,29.91,WSW,252,4.0,-999.0,81,-99.99,,,0.00,weatherlink.com 1.10,2013-07-25 01:35:00,
2013-07-24 18:52:00,60.9,56.0,29.90,SSW,209,5.0,-999.0,84,-99.99,,,0.00,weatherlink.com 1.10,2013-07-25 01:52:00,
2013-07-24 19:08:00,60.1,56.0,29.91,WSW,238,0.0,-999.0,86,-99.99,,,0.00,weatherlink.com 1.10,2013-07-25 02:08:00,
2013-07-24 19:25:00,59.3,56.0,29.91,SSW,199,0.0,-999.0,89,-99.99,,,0.00,weatherlink.com 1.10,2013-07-25 02:25:00,
2013-07-24 19:41:00,58.6,56.0,29.91,SW,236,0.0,-999.0,90,-99.99,,,0.00,weatherlink.com 1.10,2013-07-25 02:41:00,
2013-07-24 19:57:00,58.4,56.0,29.91,SW,234,0.0,-999.0,91,-99.99,,,0.00,weatherlink.com 1.10,2013-07-25 02:57:00,
2013-07-24 21:03:00,57.2,56.0,29.92,WSW,241,0.0,-999.0,94,-99.99,,,0.00,weatherlink.com 1.10,2013-07-25 04:03:00,
2013-07-24 21:20:00,57.3,56.0,29.93,WSW,248,0.0,-999.0,94,-99.99,,,0.00,weatherlink.com 1.10,2013-07-25 04:20:00,
2013-07-24 21:36:00,57.2,56.0,29.94,SW,236,2.0,-999.0,94,-99.99,,,0.00,weatherlink.com 1.10,2013-07-25 04:36:00,
2013-07-24 21:52:00,57.2,56.0,29.94,SW,229,0.0,-999.0,95,-99.99,,,0.00,weatherlink.com 1.10,2013-07-25 04:52:00,
2013-07-24 22:09:00,57.3,56.0,29.94,West,259,0.0,-999.0,95,-99.99,,,0.00,weatherlink.com 1.10,2013-07-25 05:09:00,
2013-07-24 22:25:00,56.9,56.0,29.94,WNW,285,0.0,-999.0,95,-99.99,,,0.00,weatherlink.com 1.10,2013-07-25 05:25:00,
2013-07-24 22:42:00,56.9,56.0,29.95,West,274,0.0,-999.0,95,-99.99,,,0.00,weatherlink.com 1.10,2013-07-25 05:42:00,
2013-07-24 22:57:00,56.9,56.0,29.94,West,275,0.0,-999.0,95,-99.99,,,0.00,weatherlink.com 1.10,2013-07-25 05:57:00,
2013-07-24 23:15:00,56.7,55.0,29.94,West,269,0.0,-999.0,95,-99.99,,,0.00,weatherlink.com 1.10,2013-07-25 06:15:00,
2013-07-24 23:31:00,56.6,55.0,29.94,West,269,0.0,-999.0,95,-99.99,,,0.00,weatherlink.com 1.10,2013-07-25 06:31:00,
2013-07-24 23:47:00,56.3,55.0,29.94,West,269,0.0,-999.0,95,-99.99,,,0.00,weatherlink.com 1.10,2013-07-25 06:47:00,